Time;durP1;ratioP1;P1;durP2;ratioP2;P2;SDS_P1;SDS_P2;PMS_P1;PMS_P2;Temp;Humidity;BMP_temperature;BMP_pressure;BME280_temperature;BME280_humidity;BME280_pressure;Samples;Min_cycle;Max_cycle;Signal;HPM_P1;HPM_P2
2023/02/22 00:02:12;;;;;;;23.60;6.60;;;;;;;4.86;59.50;98894.42;104981;1267;96611;-68
2023/02/22 00:04:40;;;;;;;23.20;7.20;;;;;;;4.82;59.61;98894.23;105007;1259;97085;-69
2023/02/22 00:07:08;;;;;;;19.20;6.10;;;;;;;4.81;59.64;98900.30;104952;1257;110070;-70
2023/02/22 00:09:36;;;;;;;21.90;7.20;;;;;;;4.79;59.57;98900.41;104982;1257;101759;-68
2023/02/22 00:12:04;;;;;;;20.70;7.20;;;;;;;4.76;59.72;98903.13;104967;1276;108306;-70
2023/02/22 00:14:32;;;;;;;23.20;6.30;;;;;;;4.77;59.67;98907.86;104795;1271;96589;-69
2023/02/22 00:17:01;;;;;;;25.80;7.30;;;;;;;4.75;59.82;98907.60;105003;1255;98149;-69
2023/02/22 00:19:29;;;;;;;24.60;7.10;;;;;;;4.74;59.72;98907.46;104971;1257;109391;-70
2023/02/22 00:21:58;;;;;;;22.60;6.00;;;;;;;4.74;59.73;98903.98;105051;1254;100898;-72
2023/02/22 00:24:28;;;;;;;20.80;6.20;;;;;;;4.72;59.85;98905.09;105145;1259;107584;-68
2023/02/22 00:27:14;;;;;;;23.00;6.90;;;;;;;4.72;59.93;98905.48;104738;1259;98030;-70
2023/02/22 00:29:46;;;;;;;21.70;6.80;;;;;;;4.70;59.84;98903.79;105016;1257;97411;-72
2023/02/22 00:32:14;;;;;;;22.00;6.60;;;;;;;4.70;59.86;98908.23;104979;1258;108910;-72
2023/02/22 00:34:42;;;;;;;20.90;6.60;;;;;;;4.68;60.02;98911.14;105027;1265;102371;-71
2023/02/22 00:37:10;;;;;;;21.40;6.20;;;;;;;4.68;60.04;98910.98;105095;1264;108192;-68
2023/02/22 00:39:39;;;;;;;20.10;6.40;;;;;;;4.67;60.02;98914.50;104992;1253;96547;-70
2023/02/22 00:42:08;;;;;;;22.20;7.20;;;;;;;4.67;60.07;98910.31;104944;1258;97084;-69
2023/02/22 00:44:36;;;;;;;22.60;6.40;;;;;;;4.66;60.09;98909.48;105138;1257;110877;-68
2023/02/22 00:47:04;;;;;;;20.90;6.00;;;;;;;4.64;60.18;98912.02;104793;1259;101797;-69
2023/02/22 00:49:32;;;;;;;26.80;6.40;;;;;;;4.63;60.02;98911.03;105114;1257;106573;-69
2023/02/22 00:52:00;;;;;;;22.40;6.90;;;;;;;4.63;59.89;98908.41;104770;1276;97835;-70
2023/02/22 00:54:28;;;;;;;22.80;6.50;;;;;;;4.62;60.27;98911.61;105001;1256;97087;-70
2023/02/22 00:56:57;;;;;;;20.90;6.00;;;;;;;4.61;60.27;98916.23;104804;1259;110963;-70
2023/02/22 00:59:26;;;;;;;23.40;6.50;;;;;;;4.60;60.21;98917.31;104877;1260;101472;-70
2023/02/22 01:01:54;;;;;;;22.40;5.70;;;;;;;4.60;60.20;98920.33;104860;1259;108342;-70
2023/02/22 01:04:21;;;;;;;22.50;7.00;;;;;;;4.58;60.45;98921.08;104970;1268;97812;-69
2023/02/22 01:06:50;;;;;;;19.00;5.20;;;;;;;4.58;60.25;98920.39;105089;1259;97532;-69
2023/02/22 01:09:20;;;;;;;19.40;5.20;;;;;;;4.58;60.39;98923.40;104965;1256;112612;-71
2023/02/22 01:11:54;;;;;;;20.10;5.90;;;;;;;4.58;60.39;98926.17;104922;1253;101397;-70
2023/02/22 01:14:26;;;;;;;18.40;6.20;;;;;;;4.59;60.47;98928.45;104928;1259;107597;-69
2023/02/22 01:16:55;;;;;;;19.10;5.70;;;;;;;4.58;60.43;98926.18;105030;1256;96721;-69
2023/02/22 01:19:24;;;;;;;19.10;5.10;;;;;;;4.58;60.43;98927.08;105050;1253;97087;-69
2023/02/22 01:21:53;;;;;;;23.30;5.40;;;;;;;4.58;60.51;98927.45;104866;1261;110434;-70
2023/02/22 01:24:21;;;;;;;19.50;5.20;;;;;;;4.57;60.46;98927.46;104898;1266;101718;-70
2023/02/22 01:26:51;;;;;;;19.50;5.30;;;;;;;4.57;60.42;98927.83;104971;1258;107617;-70
2023/02/22 01:29:20;;;;;;;17.40;4.80;;;;;;;4.58;60.40;98928.85;105072;1253;97156;-69
2023/02/22 01:31:53;;;;;;;17.20;4.70;;;;;;;4.57;60.29;98929.22;104923;1257;97027;-69
2023/02/22 01:34:23;;;;;;;;;;;;;;;4.56;60.47;98930.88;105026;1259;109291;-69
2023/02/22 01:36:50;;;;;;;19.90;5.80;;;;;;;4.52;60.61;98927.90;104972;1258;101449;-70
2023/02/22 01:39:18;;;;;;;19.40;5.10;;;;;;;4.51;60.53;98928.99;104884;1259;107209;-70
2023/02/22 01:41:46;;;;;;;19.70;5.90;;;;;;;4.50;60.74;98928.36;104900;1253;379635;-68
2023/02/22 01:44:21;;;;;;;21.70;5.60;;;;;;;4.50;60.64;98932.41;104990;1256;97402;-70
2023/02/22 01:46:49;;;;;;;22.30;5.80;;;;;;;4.50;60.82;98932.92;104661;1253;109526;-70
2023/02/22 01:49:18;;;;;;;17.00;4.70;;;;;;;4.50;60.73;98933.48;104944;1258;100890;-69
2023/02/22 01:51:51;;;;;;;22.70;4.60;;;;;;;4.49;60.68;98935.06;104865;1271;107192;-71
2023/02/22 01:54:44;;;;;;;25.80;5.30;;;;;;;4.49;60.77;98933.88;104862;1259;96626;-68
2023/02/22 01:57:20;;;;;;;19.90;4.40;;;;;;;4.47;60.74;98934.83;104992;1253;97185;-70
2023/02/22 01:59:52;;;;;;;26.20;6.10;;;;;;;4.47;60.86;98933.96;105002;1253;109899;-70
2023/02/22 02:02:21;;;;;;;19.70;5.30;;;;;;;4.46;60.85;98934.70;104997;1259;100901;-70
2023/02/22 02:04:49;;;;;;;16.80;5.20;;;;;;;4.45;60.68;98935.27;105090;1259;108199;-69
2023/02/22 02:07:20;;;;;;;23.90;5.20;;;;;;;4.45;61.01;98940.91;104962;1257;97342;-70
2023/02/22 02:09:57;;;;;;;19.30;4.80;;;;;;;4.43;61.01;98940.13;104997;1256;97616;-70
2023/02/22 02:12:28;;;;;;;21.40;5.60;;;;;;;4.41;60.97;98940.05;104709;1258;109944;-69
2023/02/22 02:15:27;;;;;;;22.40;4.90;;;;;;;4.38;60.97;98940.16;104761;1271;100887;-70
2023/02/22 02:18:06;;;;;;;22.90;5.40;;;;;;;4.38;61.05;98940.04;104808;1259;106659;-69
2023/02/22 02:20:39;;;;;;;16.70;5.00;;;;;;;4.37;61.07;98943.07;104986;1258;96703;-70
2023/02/22 02:23:31;;;;;;;21.10;5.40;;;;;;;4.36;61.15;98942.22;104910;1258;96573;-70
2023/02/22 02:26:20;;;;;;;20.00;5.00;;;;;;;4.36;61.37;98943.42;104826;1257;109901;-70
2023/02/22 02:29:03;;;;;;;19.00;4.90;;;;;;;4.37;61.07;98943.75;105054;1258;101281;-70
2023/02/22 02:31:49;;;;;;;19.40;4.90;;;;;;;4.36;61.20;98942.04;104886;1257;107331;-70
2023/02/22 02:34:39;;;;;;;29.00;5.60;;;;;;;4.36;61.19;98942.58;104969;1269;97793;-70
2023/02/22 02:37:34;;;;;;;17.90;5.50;;;;;;;4.35;61.45;98945.78;105059;1273;97803;-69
2023/02/22 02:40:15;;;;;;;19.10;5.40;;;;;;;4.35;61.36;98947.89;104770;1272;110563;-69
2023/02/22 02:43:03;;;;;;;23.60;5.30;;;;;;;4.35;61.53;98945.42;104829;1269;101238;-69
2023/02/22 02:45:47;;;;;;;17.70;5.80;;;;;;;4.36;61.44;98944.89;105050;1261;107618;-69
2023/02/22 02:48:20;;;;;;;20.10;5.30;;;;;;;4.35;61.62;98941.90;104650;1258;96729;-68
2023/02/22 02:50:49;;;;;;;22.80;4.90;;;;;;;4.36;61.66;98946.22;105220;1258;96650;-69
2023/02/22 02:53:24;;;;;;;20.10;4.70;;;;;;;4.36;61.61;98945.52;104997;1267;109908;-69
2023/02/22 02:55:52;;;;;;;22.60;4.70;;;;;;;4.37;61.52;98951.28;104594;1270;101089;-69
2023/02/22 02:58:22;;;;;;;19.70;5.30;;;;;;;4.38;61.69;98951.44;104791;1253;107651;-70
2023/02/22 03:01:00;;;;;;;21.20;5.90;;;;;;;4.38;61.79;98952.48;104870;1259;97905;-70
2023/02/22 03:03:50;;;;;;;22.20;5.50;;;;;;;4.39;61.85;98963.15;105007;1257;97084;-70
2023/02/22 03:06:31;;;;;;;15.60;4.30;;;;;;;4.38;61.78;98961.27;104737;1259;110000;-69
2023/02/22 03:09:29;;;;;;;19.20;5.00;;;;;;;4.37;61.77;98961.45;108717;1253;100684;-67
2023/02/22 03:12:10;;;;;;;19.60;4.80;;;;;;;4.38;61.70;98963.73;108708;1253;107250;-68
2023/02/22 03:15:01;;;;;;;18.40;5.10;;;;;;;4.39;61.63;98967.53;108695;1253;94641;-68
2023/02/22 03:17:47;;;;;;;20.10;4.30;;;;;;;4.40;61.73;98969.40;108686;1253;94494;-68
2023/02/22 03:20:30;;;;;;;18.30;4.40;;;;;;;4.42;61.60;98971.40;108732;1253;109504;-66
2023/02/22 03:23:06;;;;;;;19.30;5.40;;;;;;;4.44;61.78;98978.38;108734;1253;100972;-68
2023/02/22 03:25:42;;;;;;;18.20;6.10;;;;;;;4.45;61.85;98982.00;108526;1253;107615;-67
2023/02/22 03:28:13;;;;;;;20.40;4.60;;;;;;;4.46;62.01;98988.09;108698;1254;94253;-68
2023/02/22 03:30:48;;;;;;;20.60;5.30;;;;;;;4.48;61.69;98989.58;105699;1258;96806;-69
2023/02/22 03:33:32;;;;;;;15.80;4.40;;;;;;;4.49;61.70;98990.04;104949;1254;109382;-69
2023/02/22 03:36:08;;;;;;;20.90;4.90;;;;;;;4.50;61.76;98990.91;104911;1266;99219;-70
2023/02/22 03:38:39;;;;;;;18.80;4.10;;;;;;;4.49;61.88;98994.13;104921;1269;107107;-70
2023/02/22 03:41:09;;;;;;;19.00;5.30;;;;;;;4.47;61.91;98994.88;105072;1257;96925;-69
2023/02/22 03:43:41;;;;;;;19.80;4.50;;;;;;;4.46;61.92;98995.63;104927;1259;97247;-69
2023/02/22 03:46:11;;;;;;;20.80;4.20;;;;;;;4.45;61.86;98995.69;104889;1258;109328;-71
2023/02/22 03:48:43;;;;;;;18.30;4.50;;;;;;;4.44;62.03;98993.97;104997;1259;101341;-69
2023/02/22 03:51:13;;;;;;;16.90;5.00;;;;;;;4.43;61.96;99000.02;105103;1268;108206;-70
2023/02/22 03:53:43;;;;;;;18.80;4.80;;;;;;;4.41;61.97;99000.27;104892;1259;97915;-70
2023/02/22 03:56:19;;;;;;;20.90;5.60;;;;;;;4.39;62.19;99001.42;105028;1257;97118;-70
2023/02/22 03:58:48;;;;;;;19.30;5.40;;;;;;;4.37;62.16;99003.95;104654;1264;109389;-71
2023/02/22 04:01:18;;;;;;;18.20;4.70;;;;;;;4.35;62.00;99004.27;104976;1264;100997;-70
2023/02/22 04:03:46;;;;;;;21.00;5.60;;;;;;;4.33;62.13;99005.73;105042;1267;107214;-70
2023/02/22 04:06:14;;;;;;;25.00;5.20;;;;;;;4.31;62.20;99007.02;104563;1268;97832;-70
2023/02/22 04:08:43;;;;;;;20.60;5.10;;;;;;;4.30;62.35;99010.77;105041;1256;98607;-69
2023/02/22 04:11:11;;;;;;;16.70;4.50;;;;;;;4.30;62.15;99007.27;105057;1259;108515;-69
2023/02/22 04:13:39;;;;;;;22.00;5.10;;;;;;;4.29;62.70;99010.82;105039;1256;101809;-69
2023/02/22 04:16:07;;;;;;;20.00;4.70;;;;;;;4.28;62.53;99011.08;104971;1259;108494;-69
2023/02/22 04:18:35;;;;;;;21.20;4.70;;;;;;;4.27;62.63;99009.19;104904;1259;96589;-69
2023/02/22 04:21:04;;;;;;;20.80;4.90;;;;;;;4.26;62.65;99011.16;104830;1258;97098;-69
2023/02/22 04:23:32;;;;;;;17.30;5.00;;;;;;;4.25;62.52;99011.40;105086;1257;109898;-70
2023/02/22 04:25:59;;;;;;;25.80;5.90;;;;;;;4.24;62.52;99013.52;105062;1259;100235;-70
2023/02/22 04:28:27;;;;;;;27.90;6.50;;;;;;;4.24;62.58;99018.45;104943;1267;108063;-70
2023/02/22 04:30:56;;;;;;;19.10;4.40;;;;;;;4.24;62.46;99016.38;104737;1259;96594;-71
2023/02/22 04:33:24;;;;;;;19.40;5.60;;;;;;;4.23;62.59;99017.81;105128;1257;96946;-69
2023/02/22 04:35:52;;;;;;;17.50;4.50;;;;;;;4.22;62.69;99019.27;104764;1268;110418;-70
2023/02/22 04:38:20;;;;;;;16.50;4.40;;;;;;;4.22;62.69;99017.49;104950;1266;101458;-69
2023/02/22 04:40:47;;;;;;;19.10;5.00;;;;;;;4.21;62.67;99018.10;104820;1270;108152;-70
2023/02/22 04:43:15;;;;;;;24.40;6.40;;;;;;;4.20;62.96;99020.39;104999;1263;96658;-69
2023/02/22 04:45:44;;;;;;;22.70;5.30;;;;;;;4.19;62.65;99019.76;104874;1258;98122;-69
2023/02/22 04:48:12;;;;;;;20.60;5.00;;;;;;;4.17;62.92;99024.73;104977;1257;110028;-73
2023/02/22 04:50:41;;;;;;;19.50;5.00;;;;;;;4.17;62.80;99028.08;104974;1259;100911;-70
2023/02/22 04:53:09;;;;;;;22.20;5.40;;;;;;;4.16;62.58;99028.48;104717;1259;107608;-72
2023/02/22 04:55:37;;;;;;;21.40;5.20;;;;;;;4.15;62.55;99029.73;104798;1274;96597;-70
2023/02/22 04:58:06;;;;;;;19.70;5.20;;;;;;;4.15;62.77;99032.92;105101;1257;97810;-70
2023/02/22 05:00:36;;;;;;;22.60;5.30;;;;;;;4.14;62.53;99034.19;104739;1258;111082;-70
2023/02/22 05:03:04;;;;;;;22.60;6.50;;;;;;;4.13;62.72;99031.09;104749;1258;101474;-69
2023/02/22 05:05:32;;;;;;;21.00;5.20;;;;;;;4.11;62.81;99033.09;108624;1253;108495;-69
2023/02/22 05:07:59;;;;;;;23.40;8.20;;;;;;;4.09;62.73;99033.54;107777;1253;96491;-69
2023/02/22 05:10:28;;;;;;;27.40;8.80;;;;;;;4.08;62.77;99035.19;108634;1253;94232;-69
2023/02/22 05:12:56;;;;;;;68.10;21.50;;;;;;;4.08;62.93;99034.30;108666;1253;109944;-69
2023/02/22 05:15:24;;;;;;;57.10;16.90;;;;;;;4.09;62.72;99032.31;108704;1253;101345;-70
2023/02/22 05:17:52;;;;;;;32.30;9.50;;;;;;;4.10;62.63;99029.64;107507;1257;107616;-69
2023/02/22 05:20:27;;;;;;;22.60;5.70;;;;;;;4.11;62.78;99028.35;104719;1260;96601;-70
2023/02/22 05:22:56;;;;;;;22.20;6.20;;;;;;;4.11;63.03;99032.73;104634;1263;97053;-70
2023/02/22 05:25:26;;;;;;;21.20;5.90;;;;;;;4.11;62.79;99034.14;104753;1258;109480;-69
2023/02/22 05:27:58;;;;;;;23.60;5.40;;;;;;;4.11;62.84;99036.45;105005;1266;100860;-70
2023/02/22 05:30:30;;;;;;;21.40;5.70;;;;;;;4.10;62.99;99037.20;104909;1256;107442;-70
2023/02/22 05:32:58;;;;;;;27.50;7.00;;;;;;;4.09;63.07;99041.45;104807;1258;96581;-68
2023/02/22 05:35:27;;;;;;;34.60;11.50;;;;;;;4.07;63.06;99043.80;105064;1257;97059;-70
2023/02/22 05:37:57;;;;;;;29.30;12.10;;;;;;;4.08;62.98;99046.60;105267;1257;109863;-69
2023/02/22 05:40:26;;;;;;;26.00;8.30;;;;;;;4.08;62.99;99051.52;105012;1256;100857;-68
2023/02/22 05:42:55;;;;;;;25.20;9.10;;;;;;;4.07;62.92;99052.95;104815;1257;107652;-70
2023/02/22 05:45:26;;;;;;;27.40;7.40;;;;;;;4.07;62.91;99055.21;104887;1257;97032;-71
2023/02/22 05:47:54;;;;;;;18.90;5.30;;;;;;;4.07;62.94;99056.43;104951;1256;97024;-69
2023/02/22 05:50:23;;;;;;;22.40;5.50;;;;;;;4.09;63.01;99059.53;104944;1257;110464;-70
2023/02/22 05:52:52;;;;;;;22.50;5.30;;;;;;;4.09;63.14;99061.09;105015;1260;101122;-70
2023/02/22 05:55:22;;;;;;;23.90;6.20;;;;;;;4.09;63.25;99066.37;104857;1266;107622;-70
2023/02/22 05:57:51;;;;;;;20.80;6.70;;;;;;;4.10;63.36;99068.08;104841;1259;96686;-71
2023/02/22 06:00:22;;;;;;;27.60;7.30;;;;;;;4.10;63.42;99068.73;104998;1257;97091;-70
2023/02/22 06:02:58;;;;;;;22.40;6.00;;;;;;;4.11;63.24;99072.75;105004;1266;109342;-70
2023/02/22 06:05:28;;;;;;;19.20;5.30;;;;;;;4.13;63.33;99071.61;105088;1255;100657;-71
2023/02/22 06:07:57;;;;;;;19.50;5.20;;;;;;;4.15;63.32;99075.19;104791;1276;107695;-70
2023/02/22 06:10:26;;;;;;;21.50;6.20;;;;;;;4.18;63.39;99083.49;105070;1255;96584;-69
2023/02/22 06:12:55;;;;;;;23.90;7.20;;;;;;;4.20;63.45;99089.73;104846;1259;97017;-69
2023/02/22 06:15:25;;;;;;;27.60;6.90;;;;;;;4.22;63.33;99092.98;104850;1259;109871;-70
2023/02/22 06:17:56;;;;;;;24.90;6.60;;;;;;;4.24;63.45;99096.38;105067;1260;101206;-69
2023/02/22 06:20:26;;;;;;;24.30;6.70;;;;;;;4.29;63.27;99096.88;104675;1270;107655;-70
2023/02/22 06:22:57;;;;;;;26.70;6.60;;;;;;;4.33;63.47;99100.88;104905;1272;96815;-72
2023/02/22 06:25:30;;;;;;;24.30;6.80;;;;;;;4.37;63.50;99102.66;104903;1257;97928;-70
2023/02/22 06:27:59;;;;;;;21.00;5.30;;;;;;;4.39;63.35;99104.11;104899;1260;109877;-70
2023/02/22 06:30:28;;;;;;;26.00;6.00;;;;;;;4.41;63.51;99104.34;105010;1267;100862;-69
2023/02/22 06:32:56;;;;;;;27.50;5.90;;;;;;;4.46;63.41;99106.81;104863;1267;105679;-69
2023/02/22 06:35:25;;;;;;;26.20;7.70;;;;;;;4.52;63.38;99105.99;108669;1253;94576;-70
2023/02/22 06:37:53;;;;;;;24.80;6.50;;;;;;;4.57;63.58;99106.62;106940;1257;96581;-70
2023/02/22 06:40:21;;;;;;;29.00;8.20;;;;;;;4.64;63.63;99108.95;108667;1253;110117;-70
2023/02/22 06:42:49;;;;;;;22.80;6.40;;;;;;;4.69;63.60;99108.01;108721;1254;101010;-68
2023/02/22 06:45:17;;;;;;;27.70;6.60;;;;;;;4.72;63.67;99110.67;108680;1252;107653;-69
2023/02/22 06:47:46;;;;;;;23.90;6.60;;;;;;;4.76;63.59;99111.19;106763;1258;97377;-71
2023/02/22 06:50:28;;;;;;;23.30;6.60;;;;;;;4.83;63.46;99112.98;104949;1266;97860;-70
2023/02/22 06:52:57;;;;;;;21.60;5.80;;;;;;;4.89;63.53;99114.09;105006;1258;109699;-70
2023/02/22 06:55:31;;;;;;;23.90;6.00;;;;;;;4.93;63.65;99121.41;105061;1257;100921;-69
2023/02/22 06:58:00;;;;;;;24.40;6.50;;;;;;;4.97;63.73;99122.84;105002;1259;108551;-71
2023/02/22 07:00:31;;;;;;;20.30;5.80;;;;;;;5.02;63.70;99122.42;105024;1260;96680;-70
2023/02/22 07:02:59;;;;;;;23.40;5.80;;;;;;;5.10;63.84;99126.23;104885;1260;99127;-70
2023/02/22 07:05:27;;;;;;;27.30;6.80;;;;;;;5.18;63.83;99126.91;105014;1257;109999;-70
2023/02/22 07:08:03;;;;;;;26.00;6.20;;;;;;;5.23;63.84;99132.29;105017;1257;101250;-71
2023/02/22 07:10:33;;;;;;;24.60;6.00;;;;;;;5.23;63.66;99132.83;104674;1266;107582;-70
2023/02/22 07:13:02;;;;;;;22.70;5.50;;;;;;;5.25;63.60;99130.80;104940;1257;96577;-70
2023/02/22 07:15:31;;;;;;;25.90;5.80;;;;;;;5.29;63.73;99134.82;105025;1255;97117;-69
2023/02/22 07:18:00;;;;;;;24.70;6.70;;;;;;;5.29;63.48;99134.64;105028;1256;110558;-70
2023/02/22 07:20:30;;;;;;;26.80;8.30;;;;;;;5.30;63.47;99131.07;104990;1267;100692;-69
2023/02/22 07:23:00;;;;;;;22.40;6.20;;;;;;;5.36;63.42;99132.34;104982;1260;108075;-71
2023/02/22 07:25:28;;;;;;;21.80;6.00;;;;;;;5.44;63.35;99132.80;105099;1257;96594;-69
2023/02/22 07:27:56;;;;;;;20.40;4.30;;;;;;;5.49;63.32;99132.73;105051;1256;97561;-71
2023/02/22 07:30:30;;;;;;;20.70;5.00;;;;;;;5.51;63.11;99132.09;104815;1259;110229;-70
2023/02/22 07:33:04;;;;;;;21.80;4.40;;;;;;;5.56;63.11;99134.17;104932;1259;100885;-68
2023/02/22 07:35:48;;;;;;;19.60;4.90;;;;;;;5.60;63.28;99132.20;105026;1267;106017;-70
2023/02/22 07:38:18;;;;;;;20.40;5.60;;;;;;;5.67;63.38;99133.58;104787;1270;97809;-69
2023/02/22 07:40:46;;;;;;;23.30;5.10;;;;;;;5.78;63.21;99138.34;104832;1260;97089;-71
2023/02/22 07:43:15;;;;;;;18.00;4.90;;;;;;;5.85;63.27;99137.08;104855;1260;110720;-70
2023/02/22 07:45:45;;;;;;;19.80;5.00;;;;;;;5.91;62.93;99136.92;105014;1257;101537;-70
2023/02/22 07:48:15;;;;;;;23.80;5.10;;;;;;;5.96;62.98;99136.85;104890;1260;107040;-71
2023/02/22 07:50:44;;;;;;;19.00;5.10;;;;;;;5.99;62.89;99136.20;104787;1259;96770;-71
2023/02/22 07:53:16;;;;;;;19.70;4.90;;;;;;;6.00;62.42;99134.56;105001;1257;97169;-70
2023/02/22 07:55:45;;;;;;;17.90;4.80;;;;;;;6.05;62.33;99141.70;104877;1261;109502;-70
2023/02/22 07:58:14;;;;;;;23.60;5.00;;;;;;;6.08;62.55;99142.80;104942;1260;100565;-72
2023/02/22 08:00:43;;;;;;;21.60;5.50;;;;;;;6.10;61.98;99145.64;104991;1268;107079;-70
2023/02/22 08:03:12;;;;;;;16.50;4.90;;;;;;;6.13;62.03;99146.94;104862;1257;97915;-70
2023/02/22 08:05:44;;;;;;;18.10;4.90;;;;;;;6.12;62.03;99151.70;104956;1258;98178;-70
2023/02/22 08:08:16;;;;;;;20.80;5.10;;;;;;;6.16;62.54;99149.23;104919;1257;109984;-69
2023/02/22 08:10:49;;;;;;;16.40;5.00;;;;;;;6.19;62.51;99150.29;104756;1267;100748;-71
2023/02/22 08:13:18;;;;;;;23.20;7.20;;;;;;;6.25;62.75;99155.77;104979;1254;106330;-70
2023/02/22 08:15:48;;;;;;;20.70;5.40;;;;;;;6.32;62.65;99151.52;104742;1259;96573;-72
2023/02/22 08:18:19;;;;;;;23.10;7.50;;;;;;;6.37;61.94;99152.52;104875;1257;97934;-70
2023/02/22 08:20:49;;;;;;;22.70;6.60;;;;;;;6.36;62.23;99154.64;104792;1266;109950;-71
2023/02/22 08:23:19;;;;;;;18.80;5.40;;;;;;;6.36;62.37;99153.59;104947;1258;100557;-71
2023/02/22 08:25:47;;;;;;;24.30;6.70;;;;;;;6.39;62.46;99150.30;104713;1258;107630;-71
2023/02/22 08:28:18;;;;;;;26.40;6.60;;;;;;;6.39;62.32;99148.55;105063;1256;96610;-68
2023/02/22 08:30:46;;;;;;;26.60;7.60;;;;;;;6.37;62.09;99151.81;104928;1257;97006;-70
2023/02/22 08:33:18;;;;;;;30.40;9.90;;;;;;;6.37;62.55;99152.33;105027;1257;109443;-68
2023/02/22 08:35:50;;;;;;;31.90;13.10;;;;;;;6.42;62.42;99153.67;104970;1267;100832;-71
2023/02/22 08:38:26;;;;;;;23.50;7.60;;;;;;;6.43;62.69;99152.73;104746;1259;108342;-70
2023/02/22 08:40:55;;;;;;;29.50;9.60;;;;;;;6.44;62.75;99155.31;104753;1260;97880;-72
2023/02/22 08:43:23;;;;;;;28.40;7.10;;;;;;;6.41;62.35;99154.58;104944;1256;96665;-71
2023/02/22 08:45:51;;;;;;;25.60;7.00;;;;;;;6.39;62.42;99159.09;104943;1255;110430;-70
2023/02/22 08:48:22;;;;;;;35.40;10.30;;;;;;;6.38;62.36;99165.29;104890;1256;100168;-69
2023/02/22 08:50:50;;;;;;;23.50;7.20;;;;;;;6.34;61.99;99163.77;104912;1257;107694;-71
2023/02/22 08:53:18;;;;;;;26.50;8.10;;;;;;;6.27;62.45;99160.94;104882;1260;97433;-70
2023/02/22 08:55:46;;;;;;;101.40;38.30;;;;;;;6.25;62.43;99164.60;104954;1257;97112;-71
2023/02/22 08:58:14;;;;;;;37.90;12.40;;;;;;;6.17;62.15;99164.50;105024;1254;110467;-68
2023/02/22 09:00:43;;;;;;;24.90;7.10;;;;;;;6.10;62.19;99166.81;104925;1257;101488;-70
2023/02/22 09:03:14;;;;;;;37.40;9.70;;;;;;;6.04;62.20;99169.58;105016;1266;107932;-70
2023/02/22 09:05:43;;;;;;;33.80;9.40;;;;;;;6.00;62.20;99166.42;105016;1260;96607;-69
2023/02/22 09:08:12;;;;;;;30.00;7.30;;;;;;;5.96;62.38;99168.34;104969;1257;96988;-69
2023/02/22 09:10:40;;;;;;;26.70;6.40;;;;;;;5.91;62.31;99172.30;104957;1257;110626;-68
2023/02/22 09:13:08;;;;;;;21.30;6.30;;;;;;;5.84;62.30;99171.99;104897;1266;102043;-75
2023/02/22 09:15:38;;;;;;;25.20;7.50;;;;;;;5.75;62.37;99174.49;105061;1266;108196;-74
2023/02/22 09:18:08;;;;;;;21.00;6.60;;;;;;;5.71;62.58;99176.69;104953;1253;96605;-70
2023/02/22 09:20:37;;;;;;;61.20;25.60;;;;;;;5.67;62.52;99177.38;105009;1257;97412;-70
2023/02/22 09:23:05;;;;;;;104.10;39.20;;;;;;;5.68;62.44;99178.08;105019;1257;110854;-71
2023/02/22 09:25:34;;;;;;;43.80;15.70;;;;;;;5.74;62.52;99175.27;104945;1259;101378;-71
2023/02/22 09:28:03;;;;;;;41.10;14.00;;;;;;;5.84;62.56;99174.80;104951;1260;107160;-72
2023/02/22 09:30:34;;;;;;;32.20;8.60;;;;;;;5.97;62.57;99179.02;105121;1254;96600;-70
2023/02/22 09:33:04;;;;;;;34.10;9.60;;;;;;;6.12;62.48;99179.18;104914;1253;98452;-70
2023/02/22 09:35:34;;;;;;;25.70;8.20;;;;;;;6.28;62.67;99179.08;104799;1253;109902;-70
2023/02/22 09:38:07;;;;;;;35.70;12.00;;;;;;;6.41;62.69;99180.63;104885;1257;100931;-70
2023/02/22 09:40:43;;;;;;;29.70;8.60;;;;;;;6.58;62.47;99174.83;104848;1260;107803;-70
2023/02/22 09:43:23;;;;;;;33.40;12.40;;;;;;;6.66;62.39;99177.00;104919;1257;97049;-71
2023/02/22 09:46:17;;;;;;;50.10;19.80;;;;;;;6.75;62.22;99173.19;105087;1254;97055;-70
2023/02/22 09:48:59;;;;;;;32.80;10.80;;;;;;;6.82;62.44;99174.92;104679;1271;109902;-68
2023/02/22 09:51:57;;;;;;;26.90;7.30;;;;;;;6.89;62.22;99173.31;104870;1257;101773;-70
2023/02/22 09:54:34;;;;;;;25.40;5.90;;;;;;;6.85;61.55;99178.29;105008;1257;108234;-70
2023/02/22 09:57:15;;;;;;;21.00;6.20;;;;;;;6.81;61.94;99172.30;104867;1257;96678;-71
2023/02/22 09:59:52;;;;;;;21.90;5.80;;;;;;;6.83;62.32;99170.08;104944;1257;97097;-71
2023/02/22 10:02:31;;;;;;;27.20;7.30;;;;;;;6.87;62.21;99170.06;104872;1258;109876;-70
2023/02/22 10:05:19;;;;;;;28.80;7.60;;;;;;;6.83;62.11;99170.45;104798;1259;100908;-72
2023/02/22 10:07:57;;;;;;;21.20;5.10;;;;;;;6.80;62.07;99171.48;104745;1268;107622;-71
2023/02/22 10:10:32;;;;;;;18.60;6.00;;;;;;;6.76;61.61;99169.64;104945;1271;96725;-69
2023/02/22 10:13:23;;;;;;;37.20;12.60;;;;;;;6.70;61.93;99168.01;104908;1254;97085;-69
2023/02/22 10:15:57;;;;;;;34.40;9.20;;;;;;;6.68;61.83;99171.63;104788;1255;109777;-69
2023/02/22 10:18:50;;;;;;;29.60;7.80;;;;;;;6.66;62.00;99172.26;104820;1267;101289;-69
2023/02/22 10:21:56;;;;;;;24.00;7.50;;;;;;;6.73;62.10;99172.60;104873;1267;108482;-69
2023/02/22 10:24:46;;;;;;;25.60;7.30;;;;;;;6.83;61.97;99173.95;104995;1256;97533;-69
2023/02/22 10:27:28;;;;;;;23.30;6.90;;;;;;;6.87;61.76;99176.09;104696;1253;97798;-69
2023/02/22 10:30:15;;;;;;;26.10;8.30;;;;;;;6.88;61.91;99174.97;104660;1254;107754;-69
2023/02/22 10:33:00;;;;;;;21.60;6.40;;;;;;;6.89;61.89;99170.67;108542;1253;100524;-69
2023/02/22 10:35:37;;;;;;;25.40;8.80;;;;;;;6.91;61.86;99175.82;108542;1253;107296;-67
2023/02/22 10:38:19;;;;;;;24.90;7.90;;;;;;;6.89;61.73;99171.72;108476;1254;94559;-67
2023/02/22 10:41:22;;;;;;;24.60;7.50;;;;;;;6.94;61.78;99169.46;105353;1259;97487;-68
2023/02/22 10:43:50;;;;;;;23.00;7.40;;;;;;;6.99;61.68;99169.75;104951;1257;109453;-68
2023/02/22 10:46:21;;;;;;;23.20;7.40;;;;;;;6.95;61.46;99170.32;104965;1257;101166;-70
2023/02/22 10:48:53;;;;;;;21.50;6.20;;;;;;;6.90;61.24;99170.79;104873;1266;107635;-69
2023/02/22 10:51:21;;;;;;;19.40;5.20;;;;;;;6.96;61.70;99170.64;104841;1254;96649;-70
2023/02/22 10:53:58;;;;;;;19.30;5.50;;;;;;;7.02;61.68;99174.34;104955;1257;97102;-69
2023/02/22 10:56:27;;;;;;;22.90;8.10;;;;;;;7.11;61.31;99167.50;104712;1259;109492;-68
2023/02/22 10:58:59;;;;;;;20.90;6.80;;;;;;;7.12;60.92;99169.56;104885;1257;100762;-69
2023/02/22 11:01:30;;;;;;;21.50;6.40;;;;;;;7.08;61.21;99169.27;104811;1277;107257;-69
2023/02/22 11:04:03;;;;;;;25.30;5.80;;;;;;;7.03;61.28;99168.81;104946;1265;96716;-69
2023/02/22 11:06:33;;;;;;;18.90;5.20;;;;;;;6.96;61.16;99170.45;104846;1260;96607;-69
2023/02/22 11:09:11;;;;;;;23.30;8.50;;;;;;;6.83;60.93;99165.36;104907;1257;110071;-68
2023/02/22 11:11:42;;;;;;;22.70;7.90;;;;;;;6.69;60.80;99164.73;104947;1257;101638;-68
2023/02/22 11:14:23;;;;;;;25.40;7.70;;;;;;;6.60;60.70;99165.02;104808;1260;107628;-71
2023/02/22 11:16:57;;;;;;;18.60;5.90;;;;;;;6.54;60.63;99160.08;104941;1270;97188;-71
2023/02/22 11:19:31;;;;;;;23.30;7.70;;;;;;;6.50;61.03;99159.77;104768;1255;97842;-69
2023/02/22 11:22:17;;;;;;;23.70;7.90;;;;;;;6.57;61.02;99158.14;104806;1259;109504;-71
2023/02/22 11:24:56;;;;;;;23.10;7.50;;;;;;;6.64;60.79;99156.17;104700;1261;100703;-70
2023/02/22 11:27:52;;;;;;;21.20;6.30;;;;;;;6.63;59.11;99157.44;104873;1270;108070;-70
2023/02/22 11:30:27;;;;;;;22.50;6.20;;;;;;;6.64;60.61;99156.48;105201;1257;96709;-69
2023/02/22 11:33:11;;;;;;;24.10;7.10;;;;;;;6.77;60.43;99158.82;104717;1260;97230;-71
2023/02/22 11:35:51;;;;;;;31.00;12.70;;;;;;;6.86;60.65;99153.89;104759;1257;109949;-69
2023/02/22 11:38:31;;;;;;;44.80;18.40;;;;;;;7.00;60.99;99149.60;104719;1255;100833;-68
2023/02/22 11:41:13;;;;;;;29.10;8.10;;;;;;;7.16;60.81;99147.65;104890;1258;107119;-69
2023/02/22 11:43:47;;;;;;;24.90;6.80;;;;;;;7.22;60.21;99154.02;104735;1257;96671;-70
2023/02/22 11:46:30;;;;;;;21.40;5.40;;;;;;;7.20;59.56;99152.33;104898;1257;96599;-69